Terminal Aerodrome Forecast
Issued by NWS

Home | Current Version | Previous Version | Text Only | Print | Product List | Glossary On
Versions: 1 2 3 4 5 6 7 8 9 10 11 12 13 14 15 16 17 18
000
FTUS42 KMLB 051413 AAA
TAFSUA
TAF AMD
KSUA 051413Z 0514/0612 13007KT P6SM SCT025
      TEMPO 0514/0515 BKN022
     FM051600 12010KT P6SM VCTS SCT030CB BKN080
      TEMPO 0516/0519 3SM TSRA BKN020CB OVC040
     FM052000 12010KT P6SM SCT030 BKN100
     FM060000 15004KT P6SM SCT050 OVC120=

USA.gov is the U.S. government's official web portal to all federal, state and local government web resources and services.